createdAt,value
2018-09-26T00:00:00.221Z,4.28
2018-09-26T00:02:32.876Z,7.17
2018-09-26T00:05:01.255Z,7.50
2018-09-26T00:07:29.448Z,4.75
2018-09-26T00:09:57.670Z,4.35
2018-09-26T00:12:25.897Z,3.95
2018-09-26T00:14:54.047Z,7.15
2018-09-26T00:17:22.222Z,4.85
2018-09-26T00:19:50.383Z,3.60
2018-09-26T00:22:18.507Z,6.75
2018-09-26T00:24:46.665Z,5.85
2018-09-26T00:27:14.937Z,7.25
2018-09-26T00:29:43.175Z,5.60
2018-09-26T00:32:11.347Z,5.55
2018-09-26T00:34:39.519Z,5.42
2018-09-26T00:37:07.688Z,5.42
2018-09-26T00:39:35.876Z,7.08
2018-09-26T00:42:04.098Z,6.83
2018-09-26T00:44:32.758Z,3.60
2018-09-26T00:47:00.941Z,4.12
2018-09-26T00:49:29.255Z,5.62
2018-09-26T00:51:57.425Z,8.90
2018-09-26T00:54:25.718Z,6.28
2018-09-26T00:56:53.894Z,4.58
2018-09-26T00:59:22.081Z,5.15
2018-09-26T01:01:50.211Z,6.58
2018-09-26T01:04:18.951Z,7.78
2018-09-26T01:06:47.189Z,4.40
2018-09-26T01:09:15.383Z,5.47
2018-09-26T01:11:43.641Z,8.10
2018-09-26T01:14:11.809Z,4.83
2018-09-26T01:16:40.130Z,5.42
2018-09-26T01:19:08.305Z,3.90
2018-09-26T01:21:36.441Z,7.53
2018-09-26T01:24:04.818Z,2.92
2018-09-26T01:26:32.931Z,4.95
2018-09-26T01:29:01.309Z,7.20
2018-09-26T01:31:29.424Z,4.67
2018-09-26T01:33:57.717Z,5.30
2018-09-26T01:36:25.928Z,9.98
2018-09-26T01:38:54.108Z,6.55
2018-09-26T01:41:22.554Z,3.80
2018-09-26T01:43:50.685Z,3.80
2018-09-26T01:46:18.994Z,5.00
2018-09-26T01:48:47.209Z,7.97
2018-09-26T01:51:15.456Z,6.50
2018-09-26T01:53:43.565Z,5.35
2018-09-26T01:56:11.790Z,6.67
2018-09-26T01:58:40.074Z,7.95
2018-09-26T02:01:08.285Z,7.00
2018-09-26T02:03:38.093Z,6.80
2018-09-26T02:06:06.907Z,4.65
2018-09-26T02:08:35.072Z,5.37
2018-09-26T02:11:03.391Z,7.28
2018-09-26T02:13:31.529Z,4.47
2018-09-26T02:15:59.722Z,3.42
2018-09-26T02:18:27.961Z,4.65
2018-09-26T02:20:56.106Z,7.70
2018-09-26T02:23:24.309Z,5.75
2018-09-26T02:25:52.501Z,4.22
2018-09-26T02:28:20.637Z,5.12
2018-09-26T02:30:49.113Z,3.30
2018-09-26T02:33:17.233Z,8.73
2018-09-26T02:35:45.483Z,4.87
2018-09-26T02:38:13.726Z,4.40
2018-09-26T02:40:41.867Z,4.05
2018-09-26T02:43:10.099Z,5.20
2018-09-26T02:45:38.273Z,4.00
2018-09-26T02:48:06.433Z,4.17
2018-09-26T02:50:34.776Z,5.55
2018-09-26T02:53:02.924Z,5.05
2018-09-26T02:55:31.199Z,5.12
2018-09-26T02:57:59.322Z,5.45
2018-09-26T03:00:27.491Z,5.05
2018-09-26T03:02:55.715Z,6.35
2018-09-26T03:05:23.985Z,2.85
2018-09-26T03:07:52.185Z,4.95
2018-09-26T03:10:20.353Z,8.73
2018-09-26T03:12:48.463Z,5.58
2018-09-26T03:15:16.633Z,4.40
2018-09-26T03:17:44.787Z,5.90
2018-09-26T03:20:12.993Z,5.95
2018-09-26T03:22:41.104Z,3.05
2018-09-26T03:25:09.563Z,4.58
2018-09-26T03:27:37.787Z,4.00
2018-09-26T03:30:05.955Z,6.42
2018-09-26T03:32:34.213Z,4.83
2018-09-26T03:35:02.438Z,7.03
2018-09-26T03:37:31.083Z,4.58
2018-09-26T03:39:59.260Z,5.75
2018-09-26T03:42:27.418Z,4.37
2018-09-26T03:44:55.584Z,4.45
2018-09-26T03:47:23.834Z,4.78
2018-09-26T03:49:52.073Z,7.75
2018-09-26T03:52:20.152Z,4.72
2018-09-26T03:54:48.405Z,5.53
2018-09-26T03:57:16.549Z,4.78
2018-09-26T03:59:44.715Z,7.45
2018-09-26T04:02:13.209Z,6.35
2018-09-26T04:04:41.420Z,4.47
2018-09-26T04:07:09.736Z,5.72
2018-09-26T04:09:37.906Z,8.18
2018-09-26T04:12:06.159Z,4.33
2018-09-26T04:14:34.400Z,5.30
2018-09-26T04:17:02.729Z,7.17
2018-09-26T04:19:30.909Z,6.17
2018-09-26T04:21:59.386Z,5.37
2018-09-26T04:24:27.584Z,5.22
2018-09-26T04:26:55.829Z,6.75
2018-09-26T04:29:23.893Z,4.92
2018-09-26T04:31:52.150Z,7.03
2018-09-26T04:34:20.334Z,4.17
2018-09-26T04:36:48.453Z,6.70
2018-09-26T04:39:16.727Z,5.10
2018-09-26T04:41:45.125Z,7.05
2018-09-26T04:44:13.311Z,5.83
2018-09-26T04:46:41.588Z,6.30
2018-09-26T04:49:09.741Z,4.55
2018-09-26T04:51:37.977Z,7.35
2018-09-26T04:54:07.700Z,10.10
2018-09-26T04:56:35.917Z,5.67
2018-09-26T04:59:04.307Z,5.03
2018-09-26T05:01:32.507Z,7.15
2018-09-26T05:04:00.962Z,6.67
2018-09-26T05:06:29.197Z,4.97
2018-09-26T05:08:57.329Z,5.83
2018-09-26T05:11:25.761Z,3.60
2018-09-26T05:13:53.941Z,5.35
2018-09-26T05:16:22.357Z,8.15
2018-09-26T05:18:50.502Z,5.55
2018-09-26T05:21:18.997Z,5.55
2018-09-26T05:23:47.206Z,7.12
2018-09-26T05:26:15.568Z,5.33
2018-09-26T05:28:43.784Z,4.60
2018-09-26T05:31:16.776Z,7.85
2018-09-26T05:33:45.106Z,7.40
2018-09-26T05:36:13.304Z,6.42
2018-09-26T05:38:41.536Z,4.62
2018-09-26T05:41:09.808Z,4.92
2018-09-26T05:43:38.551Z,5.70
2018-09-26T05:46:06.770Z,10.20
2018-09-26T05:48:35.366Z,6.08
2018-09-26T05:51:03.624Z,5.25
2018-09-26T05:53:31.906Z,3.92
2018-09-26T05:56:00.021Z,5.40
2018-09-26T05:58:28.177Z,6.20
2018-09-26T06:00:56.396Z,5.92
2018-09-26T06:03:24.605Z,7.85
2018-09-26T06:05:52.975Z,4.22
2018-09-26T06:08:21.286Z,6.20
2018-09-26T06:10:49.599Z,5.77
2018-09-26T06:13:17.789Z,6.20
2018-09-26T06:15:46.083Z,4.17
2018-09-26T06:18:14.299Z,5.73
2018-09-26T06:20:42.521Z,5.50
2018-09-26T06:23:10.809Z,4.90
2018-09-26T06:25:39.111Z,6.50
2018-09-26T06:28:07.429Z,7.40
2018-09-26T06:30:35.600Z,6.23
2018-09-26T06:33:03.836Z,5.37
2018-09-26T06:35:32.085Z,4.40
2018-09-26T06:38:00.311Z,6.83
2018-09-26T06:40:28.582Z,5.17
2018-09-26T06:42:56.801Z,4.70
2018-09-26T06:45:25.009Z,2.80
2018-09-26T06:47:53.150Z,3.30
2018-09-26T06:50:21.337Z,8.40
2018-09-26T06:52:49.494Z,4.83
2018-09-26T06:55:17.673Z,6.57
2018-09-26T06:57:45.822Z,3.37
2018-09-26T07:00:14.460Z,6.70
2018-09-26T07:02:42.630Z,3.30
2018-09-26T07:05:10.917Z,4.57
2018-09-26T07:07:39.004Z,6.67
2018-09-26T07:10:07.225Z,4.97
2018-09-26T07:12:35.394Z,7.83
2018-09-26T07:15:03.703Z,5.47
2018-09-26T07:17:31.894Z,2.70
2018-09-26T07:20:00.100Z,4.10
2018-09-26T07:22:28.273Z,4.03
2018-09-26T07:24:56.589Z,5.83
2018-09-26T07:27:24.789Z,3.70
2018-09-26T07:29:52.979Z,4.13
2018-09-26T07:32:21.081Z,3.37
2018-09-26T07:34:49.218Z,5.70
2018-09-26T07:37:17.362Z,4.03
2018-09-26T07:39:45.502Z,3.97
2018-09-26T07:42:13.710Z,5.33
2018-09-26T07:44:41.998Z,2.80
2018-09-26T07:47:10.171Z,4.60
2018-09-26T07:49:38.469Z,2.93
2018-09-26T07:52:06.766Z,4.10
2018-09-26T07:54:34.945Z,4.50
2018-09-26T07:57:03.144Z,3.53
2018-09-26T07:59:31.273Z,5.40
2018-09-26T08:01:59.604Z,2.43
2018-09-26T08:04:27.721Z,6.37
2018-09-26T08:06:55.981Z,4.90
2018-09-26T08:09:24.221Z,3.27
2018-09-26T08:11:52.617Z,6.13
2018-09-26T08:14:20.637Z,6.63
2018-09-26T08:16:48.940Z,5.67
2018-09-26T08:19:17.045Z,3.03
2018-09-26T08:21:45.197Z,4.07
2018-09-26T08:24:13.467Z,3.90
2018-09-26T08:26:41.652Z,5.33
2018-09-26T08:29:09.837Z,4.47
2018-09-26T08:31:38.079Z,4.77
2018-09-26T08:34:06.300Z,5.13
2018-09-26T08:36:34.541Z,2.83
2018-09-26T08:39:03.036Z,3.50
2018-09-26T08:41:31.254Z,5.57
2018-09-26T08:43:59.470Z,4.70
2018-09-26T08:46:27.593Z,4.37
2018-09-26T08:48:55.784Z,3.33
2018-09-26T08:51:23.961Z,4.67
2018-09-26T08:53:52.207Z,2.83
2018-09-26T08:56:20.261Z,4.57
2018-09-26T08:58:48.597Z,4.07
2018-09-26T09:01:22.220Z,3.80
2018-09-26T09:03:50.482Z,4.13
2018-09-26T09:06:18.772Z,5.43
2018-09-26T09:08:46.984Z,3.27
2018-09-26T09:11:15.239Z,3.80
2018-09-26T09:13:43.477Z,3.83
2018-09-26T09:16:11.712Z,3.43
2018-09-26T09:18:40.150Z,4.73
2018-09-26T09:21:08.312Z,3.70
2018-09-26T09:23:36.557Z,6.40
2018-09-26T09:26:04.991Z,3.07
2018-09-26T09:28:33.471Z,3.63
2018-09-26T09:31:01.833Z,3.13
2018-09-26T09:33:30.137Z,2.93
2018-09-26T09:35:58.372Z,7.60
2018-09-26T09:38:26.822Z,4.70
2018-09-26T09:40:54.991Z,3.80
2018-09-26T09:43:23.671Z,4.10
2018-09-26T09:45:52.048Z,5.93
2018-09-26T09:48:20.219Z,3.10
2018-09-26T09:50:49.353Z,8.40
2018-09-26T09:53:19.007Z,3.57
2018-09-26T09:55:48.306Z,5.47
2018-09-26T09:58:16.665Z,3.23
2018-09-26T10:00:50.226Z,4.60
2018-09-26T10:03:18.462Z,4.17
2018-09-26T10:05:46.621Z,4.73
2018-09-26T10:08:14.917Z,4.10
2018-09-26T10:10:43.057Z,2.27
2018-09-26T10:13:11.245Z,3.43
2018-09-26T10:15:39.375Z,3.57
2018-09-26T10:18:07.464Z,2.90
2018-09-26T10:20:35.643Z,4.17
2018-09-26T10:23:03.812Z,1.97
2018-09-26T10:25:32.244Z,3.67
2018-09-26T10:28:00.385Z,2.40
2018-09-26T10:30:28.685Z,4.30
2018-09-26T10:32:56.857Z,7.27
2018-09-26T10:35:25.153Z,4.20
2018-09-26T10:37:53.411Z,4.17
2018-09-26T10:40:21.623Z,2.97
2018-09-26T10:42:49.741Z,2.50
2018-09-26T10:45:17.921Z,4.33
2018-09-26T10:47:46.096Z,2.73
2018-09-26T10:50:14.356Z,4.17
2018-09-26T10:52:42.492Z,3.73
2018-09-26T10:55:10.667Z,3.47
2018-09-26T10:57:38.937Z,1.90
2018-09-26T11:00:07.262Z,3.93
2018-09-26T11:02:35.966Z,3.43
2018-09-26T11:05:04.422Z,3.80
2018-09-26T11:07:32.661Z,6.47
2018-09-26T11:10:00.831Z,3.90
2018-09-26T11:12:29.188Z,2.93
2018-09-26T11:14:57.320Z,2.03
2018-09-26T11:17:25.659Z,4.17
2018-09-26T11:19:53.795Z,3.50
2018-09-26T11:22:22.185Z,3.23
2018-09-26T11:24:50.266Z,3.73
2018-09-26T11:27:18.413Z,5.77
2018-09-26T11:29:46.593Z,4.17
2018-09-26T11:32:14.867Z,5.70
2018-09-26T11:34:43.017Z,5.97
2018-09-26T11:37:11.269Z,4.30
2018-09-26T11:39:39.373Z,3.37
2018-09-26T11:42:08.605Z,3.90
2018-09-26T11:44:36.810Z,3.47
2018-09-26T11:47:05.031Z,3.10
2018-09-26T11:49:33.429Z,3.57
2018-09-26T11:52:01.697Z,3.73
2018-09-26T11:54:29.867Z,2.50
2018-09-26T11:56:58.191Z,3.50
2018-09-26T11:59:26.301Z,3.93
2018-09-26T12:01:54.499Z,3.93
2018-09-26T12:04:22.686Z,1.83
2018-09-26T12:06:50.853Z,5.10
2018-09-26T12:09:19.016Z,1.83
2018-09-26T12:11:47.236Z,4.30
2018-09-26T12:14:15.343Z,3.63
2018-09-26T12:16:43.805Z,4.37
2018-09-26T12:19:12.096Z,3.40
2018-09-26T12:21:40.330Z,3.90
2018-09-26T12:24:08.459Z,5.20
2018-09-26T12:26:36.687Z,4.43
2018-09-26T12:29:05.168Z,5.67
2018-09-26T12:31:33.442Z,6.43
2018-09-26T12:34:01.759Z,5.60
2018-09-26T12:36:29.906Z,3.23
2018-09-26T12:38:58.175Z,3.03
2018-09-26T12:41:26.707Z,3.37
2018-09-26T12:43:54.959Z,6.13
2018-09-26T12:46:23.319Z,4.33
2018-09-26T12:48:51.443Z,4.50
2018-09-26T12:51:19.771Z,5.13
2018-09-26T12:53:48.991Z,2.60
2018-09-26T12:56:17.095Z,4.77
2018-09-26T12:58:45.229Z,4.07
2018-09-26T13:01:13.668Z,3.00
2018-09-26T13:03:41.802Z,3.43
2018-09-26T13:06:09.976Z,2.33
2018-09-26T13:08:38.311Z,2.37
2018-09-26T13:11:06.696Z,4.80
2018-09-26T13:13:35.103Z,3.17
2018-09-26T13:16:03.373Z,2.00
2018-09-26T13:18:31.570Z,2.87
2018-09-26T13:20:59.744Z,2.83
2018-09-26T13:23:27.874Z,4.40
2018-09-26T13:25:56.237Z,4.00
2018-09-26T13:28:24.582Z,2.53
2018-09-26T13:30:52.836Z,4.87
2018-09-26T13:33:21.176Z,5.00
2018-09-26T13:35:49.465Z,2.90
2018-09-26T13:38:17.757Z,2.73
2018-09-26T13:40:45.966Z,2.43
2018-09-26T13:43:14.057Z,3.27
2018-09-26T13:45:42.375Z,2.47
2018-09-26T13:48:10.540Z,2.77
2018-09-26T13:50:38.803Z,2.13
2018-09-26T13:53:06.985Z,2.83
2018-09-26T13:55:35.119Z,2.43
2018-09-26T13:58:03.663Z,2.00
2018-09-26T14:00:31.910Z,3.13
2018-09-26T14:03:00.103Z,2.17
2018-09-26T14:05:28.540Z,3.60
2018-09-26T14:07:56.696Z,4.63
2018-09-26T14:10:25.018Z,2.07
2018-09-26T14:12:53.214Z,3.10
2018-09-26T14:15:21.473Z,2.53
2018-09-26T14:17:49.614Z,3.37
2018-09-26T14:20:17.972Z,4.27
2018-09-26T14:22:46.314Z,4.17
2018-09-26T14:25:14.390Z,1.63
2018-09-26T14:27:42.519Z,1.50
2018-09-26T14:30:10.761Z,2.17
2018-09-26T14:32:38.869Z,4.07
2018-09-26T14:35:07.087Z,3.27
2018-09-26T14:37:35.347Z,1.97
2018-09-26T14:40:03.595Z,1.60
2018-09-26T14:42:31.845Z,2.47
2018-09-26T14:45:00.371Z,4.27
2018-09-26T14:47:28.552Z,2.13
2018-09-26T14:49:56.765Z,1.73
2018-09-26T14:52:24.948Z,1.90
2018-09-26T14:54:53.262Z,2.40
2018-09-26T14:57:21.484Z,1.40
2018-09-26T14:59:49.571Z,1.50
2018-09-26T15:02:18.055Z,1.77
2018-09-26T15:04:46.630Z,1.67
2018-09-26T15:07:14.900Z,4.40
2018-09-26T15:09:43.233Z,2.90
2018-09-26T15:12:11.477Z,1.90
2018-09-26T15:14:39.774Z,2.53
2018-09-26T15:17:07.889Z,2.03
2018-09-26T15:19:36.351Z,1.83
2018-09-26T15:22:04.547Z,1.93
2018-09-26T15:24:33.240Z,2.00
2018-09-26T15:27:01.563Z,1.97
2018-09-26T15:29:29.703Z,4.47
2018-09-26T15:31:57.874Z,2.97
2018-09-26T15:34:26.090Z,4.23
2018-09-26T15:36:54.309Z,2.17
2018-09-26T15:39:22.456Z,2.00
2018-09-26T15:41:50.715Z,1.40
2018-09-26T15:44:18.881Z,1.37
2018-09-26T15:46:47.297Z,2.53
2018-09-26T15:49:15.490Z,1.43
2018-09-26T15:51:43.840Z,1.30
2018-09-26T15:54:12.024Z,2.40
2018-09-26T15:56:40.485Z,3.37
2018-09-26T15:59:08.789Z,4.30
2018-09-26T16:01:37.117Z,2.07
2018-09-26T16:04:05.376Z,3.13
2018-09-26T16:06:33.773Z,2.03
2018-09-26T16:09:02.035Z,3.23
2018-09-26T16:11:30.372Z,3.67
2018-09-26T16:13:58.605Z,1.57
2018-09-26T16:16:26.872Z,1.40
2018-09-26T16:18:55.146Z,2.97
2018-09-26T16:21:23.358Z,1.93
2018-09-26T16:23:51.657Z,1.47
2018-09-26T16:26:19.932Z,2.63
2018-09-26T16:28:48.246Z,3.33
2018-09-26T16:31:16.706Z,2.53
2018-09-26T16:33:45.075Z,2.40
2018-09-26T16:36:13.374Z,3.10
2018-09-26T16:38:41.704Z,2.37
2018-09-26T16:41:09.966Z,2.67
2018-09-26T16:43:38.227Z,2.73
2018-09-26T16:46:06.397Z,5.33
2018-09-26T16:48:34.633Z,3.07
2018-09-26T16:51:02.858Z,3.47
2018-09-26T16:53:31.009Z,1.50
2018-09-26T16:56:00.064Z,1.43
2018-09-26T16:58:28.345Z,1.17
2018-09-26T17:00:56.608Z,3.50
2018-09-26T17:03:24.888Z,4.83
2018-09-26T17:05:53.238Z,3.40
2018-09-26T17:08:21.499Z,3.93
2018-09-26T17:10:49.638Z,1.73
2018-09-26T17:13:17.966Z,2.77
2018-09-26T17:15:46.315Z,2.00
2018-09-26T17:18:14.824Z,4.03
2018-09-26T17:20:42.951Z,3.97
2018-09-26T17:23:11.300Z,3.00
2018-09-26T17:25:39.549Z,2.30
2018-09-26T17:28:07.938Z,2.17
2018-09-26T17:30:36.199Z,4.10
2018-09-26T17:33:04.370Z,4.77
2018-09-26T17:35:32.582Z,5.53
2018-09-26T17:38:00.799Z,6.67
2018-09-26T17:40:29.176Z,3.13
2018-09-26T17:42:57.320Z,3.57
2018-09-26T17:45:25.623Z,3.27
2018-09-26T17:47:53.719Z,3.93
2018-09-26T17:50:21.845Z,4.97
2018-09-26T17:52:50.069Z,2.90
2018-09-26T17:55:18.304Z,4.03
2018-09-26T17:57:46.623Z,4.40
2018-09-26T18:00:14.967Z,3.90
2018-09-26T18:02:43.143Z,3.90
2018-09-26T18:05:11.994Z,6.77
2018-09-26T18:07:40.593Z,3.53
2018-09-26T18:10:09.265Z,3.93
2018-09-26T18:12:37.550Z,5.70
2018-09-26T18:15:05.861Z,4.93
2018-09-26T18:17:34.100Z,3.73
2018-09-26T18:20:02.355Z,2.43
2018-09-26T18:22:30.744Z,4.57
2018-09-26T18:24:58.942Z,5.67
2018-09-26T18:27:27.312Z,5.67
2018-09-26T18:29:55.641Z,5.40
2018-09-26T18:32:24.335Z,6.53
2018-09-26T18:34:56.724Z,6.23
2018-09-26T18:37:24.970Z,6.13
2018-09-26T18:39:53.312Z,7.23
2018-09-26T18:42:21.665Z,6.73
2018-09-26T18:44:49.899Z,6.17
2018-09-26T18:47:18.364Z,9.30
2018-09-26T18:49:46.621Z,7.27
2018-09-26T18:52:14.919Z,8.17
2018-09-26T18:54:43.335Z,7.17
2018-09-26T18:57:11.829Z,8.47
2018-09-26T18:59:40.070Z,8.03
2018-09-26T19:02:08.297Z,6.97
2018-09-26T19:04:36.622Z,7.70
2018-09-26T19:07:04.899Z,7.00
2018-09-26T19:09:33.284Z,5.53
2018-09-26T19:12:01.656Z,7.00
2018-09-26T19:14:29.924Z,6.40
2018-09-26T19:16:58.391Z,4.67
2018-09-26T19:19:26.594Z,7.23
2018-09-26T19:21:55.064Z,4.80
2018-09-26T19:24:23.406Z,7.20
2018-09-26T19:26:51.695Z,6.10
2018-09-26T19:29:20.220Z,6.97
2018-09-26T19:31:48.547Z,5.33
2018-09-26T19:34:17.078Z,4.17
2018-09-26T19:36:45.404Z,5.87
2018-09-26T19:39:13.807Z,6.60
2018-09-26T19:41:42.099Z,6.27
2018-09-26T19:44:10.430Z,5.80
2018-09-26T19:46:38.677Z,6.60
2018-09-26T19:49:06.996Z,7.00
2018-09-26T19:51:35.349Z,5.83
2018-09-26T19:54:03.558Z,7.93
2018-09-26T19:56:31.891Z,7.47
2018-09-26T19:59:00.110Z,8.27
2018-09-26T20:01:28.337Z,9.70
2018-09-26T20:03:56.565Z,9.00
2018-09-26T20:06:24.918Z,8.77
2018-09-26T20:08:53.252Z,10.67
2018-09-26T20:11:21.641Z,7.23
2018-09-26T20:13:50.165Z,10.67
2018-09-26T20:16:18.409Z,7.70
2018-09-26T20:18:46.696Z,8.20
2018-09-26T20:21:14.976Z,7.57
2018-09-26T20:23:43.365Z,6.83
2018-09-26T20:26:11.631Z,7.07
2018-09-26T20:28:41.999Z,10.30
2018-09-26T20:31:11.150Z,9.37
2018-09-26T20:33:39.371Z,8.87
2018-09-26T20:36:07.734Z,7.63
2018-09-26T20:38:35.884Z,10.13
2018-09-26T20:41:04.069Z,10.07
2018-09-26T20:43:32.235Z,14.20
2018-09-26T20:46:00.463Z,13.70
2018-09-26T20:48:28.755Z,9.17
2018-09-26T20:50:56.937Z,11.87
2018-09-26T20:53:25.145Z,8.63
2018-09-26T20:55:53.306Z,9.37
2018-09-26T20:58:21.628Z,10.10
2018-09-26T21:00:49.893Z,12.03
2018-09-26T21:03:18.082Z,12.53
2018-09-26T21:05:46.398Z,12.20
2018-09-26T21:08:14.592Z,10.40
2018-09-26T21:10:42.823Z,12.90
2018-09-26T21:13:11.157Z,7.63
2018-09-26T21:15:39.351Z,6.87
2018-09-26T21:18:07.716Z,8.23
2018-09-26T21:20:35.941Z,11.80
2018-09-26T21:23:04.156Z,12.20
2018-09-26T21:25:32.313Z,9.80
2018-09-26T21:28:01.637Z,8.90
2018-09-26T21:30:29.880Z,9.47
2018-09-26T21:32:58.044Z,11.80
2018-09-26T21:35:26.351Z,9.07
2018-09-26T21:37:54.540Z,8.43
2018-09-26T21:40:22.666Z,7.33
2018-09-26T21:42:50.885Z,8.37
2018-09-26T21:45:19.023Z,7.03
2018-09-26T21:47:47.184Z,7.67
2018-09-26T21:50:15.458Z,8.97
2018-09-26T21:52:43.605Z,9.17
2018-09-26T21:55:11.956Z,6.50
2018-09-26T21:57:40.092Z,9.00
2018-09-26T22:00:08.530Z,10.10
2018-09-26T22:02:36.855Z,7.63
2018-09-26T22:05:05.057Z,6.30
2018-09-26T22:07:34.200Z,8.00
2018-09-26T22:10:02.371Z,10.50
2018-09-26T22:12:30.553Z,8.90
2018-09-26T22:14:59.050Z,11.27
2018-09-26T22:17:27.215Z,10.67
2018-09-26T22:19:55.402Z,11.43
2018-09-26T22:22:23.626Z,18.27
2018-09-26T22:24:51.776Z,13.70
2018-09-26T22:27:20.079Z,11.80
2018-09-26T22:29:48.236Z,13.07
2018-09-26T22:32:16.364Z,11.97
2018-09-26T22:34:44.577Z,11.73
2018-09-26T22:37:12.724Z,10.83
2018-09-26T22:39:40.827Z,12.70
2018-09-26T22:42:09.063Z,12.43
2018-09-26T22:44:37.248Z,12.63
2018-09-26T22:47:05.373Z,9.97
2018-09-26T22:49:33.574Z,10.87
2018-09-26T22:52:01.793Z,11.00
2018-09-26T22:54:29.925Z,14.30
2018-09-26T22:56:58.245Z,15.20
2018-09-26T22:59:26.349Z,10.17
2018-09-26T23:01:54.502Z,12.17
2018-09-26T23:04:22.585Z,12.77
2018-09-26T23:06:50.735Z,14.87
2018-09-26T23:09:18.911Z,11.77
2018-09-26T23:11:47.866Z,10.87
2018-09-26T23:14:16.026Z,11.40
2018-09-26T23:16:44.186Z,8.50
2018-09-26T23:19:12.474Z,9.77
2018-09-26T23:21:40.634Z,10.23
2018-09-26T23:24:08.872Z,11.33
2018-09-26T23:26:37.017Z,11.23
2018-09-26T23:29:05.244Z,8.50
2018-09-26T23:31:33.352Z,7.37
2018-09-26T23:34:01.637Z,7.53
2018-09-26T23:36:29.845Z,9.80
2018-09-26T23:38:58.052Z,11.13
2018-09-26T23:41:26.345Z,7.30
2018-09-26T23:43:54.484Z,8.93
2018-09-26T23:46:22.661Z,12.10
2018-09-26T23:48:50.885Z,5.57
2018-09-26T23:51:19.005Z,8.60
2018-09-26T23:53:47.167Z,8.47
2018-09-26T23:56:15.378Z,9.17
2018-09-26T23:58:43.494Z,8.80
